North Bay, Canada
Current Conditions -  °F | °C
As of 9:00 PM on Saturday 25 Oct 2014 (Local Time) from CYYB Reporting Station
Overcast Overcast  
Wind Chill: 42°   Ceiling: 6500
Heat Index: 48°   Visibility: 15mi
Dew Point: 36°   Wind: 16mph
Humidity: 62%   Direction: 310°NW
Pressure: 29.49"   Gusts: 23mph
Location:  46.31°N, 79.46°W
Report Text: CYYB 260100Z 31014G20KT 15SM SCT040 OVC065 09/02 A2949 RMK SC3SC5 SLP992
Loading
Personal Weather Stations






























Interactive Weather Map
Tropical Storm Tracking
New forecast layout! Learn more

10-Day Weather Forecast

Advertisements
Track Severe Weather on mobile